Time;durP1;ratioP1;P1;durP2;ratioP2;P2;SDS_P1;SDS_P2;PMS_P1;PMS_P2;Temp;Humidity;BMP_temperature;BMP_pressure;BME280_temperature;BME280_humidity;BME280_pressure;Samples;Min_cycle;Max_cycle;Signal;HPM_P1;HPM_P2
2021/09/25 00:00:07;;;;;;;41.03;11.32;;;;;;;;;;5036254;28;20017;-85
2021/09/25 00:02:33;;;;;;;42.83;10.98;;;;;;;;;;5035486;28;20122;-85
2021/09/25 00:04:58;;;;;;;48.45;12.25;;;;;;;;;;5053945;28;20495;-85
2021/09/25 00:07:23;;;;;;;55.15;12.75;;;;;;;;;;5035217;28;20021;-85
2021/09/25 00:09:48;;;;;;;31.23;10.20;;;;;;;;;;5033380;28;20021;-84
2021/09/25 00:12:15;;;;;;;47.10;12.30;;;;;;;;;;5033616;28;20472;-84
2021/09/25 00:14:41;;;;;;;40.63;10.40;;;;;;;;;;5041196;28;20119;-85
2021/09/25 00:17:07;;;;;;;33.08;10.85;;;;;;;;;;5039806;28;20080;-84
2021/09/25 00:19:33;;;;;;;38.33;10.23;;;;;;;;;;5057915;28;20053;-84
2021/09/25 00:21:58;;;;;;;44.60;12.25;;;;;;;;;;5038435;28;20079;-84
2021/09/25 00:24:24;;;;;;;42.75;12.45;;;;;;;;;;5037163;28;20029;-84
2021/09/25 00:26:49;;;;;;;38.67;13.23;;;;;;;;;;5037110;28;20029;-84
2021/09/25 00:29:15;;;;;;;31.73;11.00;;;;;;;;;;5062106;28;20031;-84
2021/09/25 00:31:40;;;;;;;37.97;12.32;;;;;;;;;;5039038;28;20021;-85
2021/09/25 00:34:06;;;;;;;50.97;13.38;;;;;;;;;;5038650;28;20544;-84
2021/09/25 00:36:31;;;;;;;37.25;13.38;;;;;;;;;;5036796;28;20056;-84
2021/09/25 00:38:56;;;;;;;44.83;12.88;;;;;;;;;;5037619;28;20070;-84
2021/09/25 00:41:22;;;;;;;51.97;13.65;;;;;;;;;;5037323;28;20517;-84
2021/09/25 00:43:47;;;;;;;39.97;12.20;;;;;;;;;;5038199;28;20017;-84
2021/09/25 00:46:13;;;;;;;43.47;11.93;;;;;;;;;;5055247;28;20313;-85
2021/09/25 00:48:38;;;;;;;45.97;11.82;;;;;;;;;;5056471;28;20021;-84
2021/09/25 00:51:03;;;;;;;42.67;11.95;;;;;;;;;;5037095;28;20428;-84
2021/09/25 00:53:29;;;;;;;45.23;12.63;;;;;;;;;;5036527;28;20013;-85
2021/09/25 00:55:54;;;;;;;46.37;11.80;;;;;;;;;;5039379;28;20029;-84
2021/09/25 00:58:19;;;;;;;44.10;12.90;;;;;;;;;;5057642;28;20262;-85
2021/09/25 01:00:45;;;;;;;40.53;11.75;;;;;;;;;;5037874;28;20132;-84
2021/09/25 01:03:10;;;;;;;44.65;13.35;;;;;;;;;;5037135;28;20033;-84
2021/09/25 01:05:36;;;;;;;45.35;12.20;;;;;;;;;;5054733;28;20074;-84
2021/09/25 01:08:01;;;;;;;42.75;11.93;;;;;;;;;;5054805;28;20098;-84
2021/09/25 01:10:26;;;;;;;46.58;12.25;;;;;;;;;;5037188;28;20021;-84
2021/09/25 01:12:51;;;;;;;53.88;12.68;;;;;;;;;;5058351;28;20025;-85
2021/09/25 01:15:17;;;;;;;41.30;12.50;;;;;;;;;;5037693;28;20016;-85
2021/09/25 01:17:42;;;;;;;39.58;11.52;;;;;;;;;;5036243;28;20025;-85
2021/09/25 01:20:08;;;;;;;35.20;10.93;;;;;;;;;;5054058;28;20025;-85
2021/09/25 01:22:34;;;;;;;38.83;12.00;;;;;;;;;;5054249;28;20035;-84
2021/09/25 01:24:59;;;;;;;43.08;11.63;;;;;;;;;;5036799;28;20024;-85
2021/09/25 01:27:24;;;;;;;40.50;11.25;;;;;;;;;;5039135;28;20021;-85
2021/09/25 01:29:50;;;;;;;49.78;12.65;;;;;;;;;;5055561;28;20021;-84
2021/09/25 01:32:16;;;;;;;39.20;13.00;;;;;;;;;;5037503;28;20021;-84
2021/09/25 01:34:41;;;;;;;43.13;11.05;;;;;;;;;;5035719;28;20267;-84
2021/09/25 01:37:07;;;;;;;41.70;11.65;;;;;;;;;;5053660;28;20025;-84
2021/09/25 01:39:32;;;;;;;43.85;11.00;;;;;;;;;;5056848;28;20075;-84
2021/09/25 01:41:59;;;;;;;39.67;10.63;;;;;;;;;;5036880;28;20059;-84
2021/09/25 01:44:26;;;;;;;40.47;10.85;;;;;;;;;;5037192;28;20036;-84
2021/09/25 01:46:51;;;;;;;33.90;11.18;;;;;;;;;;5035568;28;20028;-84
2021/09/25 01:49:17;;;;;;;38.55;10.23;;;;;;;;;;5036069;28;20036;-84
2021/09/25 01:51:42;;;;;;;36.03;10.00;;;;;;;;;;5053637;28;20350;-84
2021/09/25 01:54:07;;;;;;;36.92;10.60;;;;;;;;;;5038701;28;20279;-84
2021/09/25 01:56:33;;;;;;;31.00;9.43;;;;;;;;;;5036917;28;20027;-84
2021/09/25 01:58:58;;;;;;;37.15;10.57;;;;;;;;;;5037301;28;20123;-85
2021/09/25 02:01:23;;;;;;;32.40;9.05;;;;;;;;;;5035919;28;20040;-85
2021/09/25 02:03:49;;;;;;;33.30;10.97;;;;;;;;;;5053346;28;20032;-84
2021/09/25 02:06:14;;;;;;;34.20;9.10;;;;;;;;;;5036626;28;20284;-84
2021/09/25 02:08:40;;;;;;;33.83;9.40;;;;;;;;;;5054742;28;20071;-85
2021/09/25 02:11:06;;;;;;;49.55;11.63;;;;;;;;;;5035402;28;20025;-85
2021/09/25 02:13:32;;;;;;;40.35;9.20;;;;;;;;;;5035590;28;20602;-84
2021/09/25 02:15:57;;;;;;;36.35;9.85;;;;;;;;;;5053857;28;20079;-84
2021/09/25 02:18:22;;;;;;;39.60;10.13;;;;;;;;;;5034397;28;20784;-84
2021/09/25 02:20:48;;;;;;;46.85;12.35;;;;;;;;;;5037832;28;20029;-84
2021/09/25 02:23:13;;;;;;;31.95;10.07;;;;;;;;;;5057519;28;20029;-85
2021/09/25 02:25:38;;;;;;;25.55;8.95;;;;;;;;;;5037894;28;20032;-85
2021/09/25 02:28:04;;;;;;;37.85;8.93;;;;;;;;;;5035079;28;20037;-84
2021/09/25 02:30:29;;;;;;;29.67;9.15;;;;;;;;;;5034279;28;20079;-84
2021/09/25 02:32:55;;;;;;;33.97;9.07;;;;;;;;;;5052369;28;20025;-84
2021/09/25 02:35:21;;;;;;;33.08;9.27;;;;;;;;;;5037581;28;20070;-84
2021/09/25 02:37:47;;;;;;;40.67;9.35;;;;;;;;;;5054724;28;20096;-85
2021/09/25 02:40:12;;;;;;;39.28;9.38;;;;;;;;;;5036039;28;20021;-84
2021/09/25 02:42:38;;;;;;;30.52;8.18;;;;;;;;;;5034691;28;20032;-84
2021/09/25 02:45:04;;;;;;;30.45;8.07;;;;;;;;;;5035003;28;20016;-84
2021/09/25 02:47:29;;;;;;;29.05;7.93;;;;;;;;;;5034042;28;20075;-84
2021/09/25 02:49:54;;;;;;;33.55;9.05;;;;;;;;;;5054751;28;20017;-85
2021/09/25 02:52:20;;;;;;;25.73;7.28;;;;;;;;;;5055590;28;20024;-85
2021/09/25 02:54:45;;;;;;;33.27;8.13;;;;;;;;;;5035655;28;20021;-84
2021/09/25 02:57:10;;;;;;;34.55;8.23;;;;;;;;;;5034806;28;20264;-84
2021/09/25 02:59:35;;;;;;;41.97;8.88;;;;;;;;;;5034708;28;20025;-84
2021/09/25 03:02:01;;;;;;;36.17;8.60;;;;;;;;;;5052320;28;20025;-84
2021/09/25 03:04:26;;;;;;;37.30;9.90;;;;;;;;;;5036654;28;20439;-84
2021/09/25 03:06:51;;;;;;;39.78;8.20;;;;;;;;;;5035294;28;20024;-85
2021/09/25 03:09:17;;;;;;;32.75;9.18;;;;;;;;;;5052547;28;20013;-83
2021/09/25 03:11:42;;;;;;;39.92;8.98;;;;;;;;;;5033976;28;20017;-84
2021/09/25 03:14:08;;;;;;;41.72;9.15;;;;;;;;;;5053025;28;20021;-84
2021/09/25 03:16:33;;;;;;;36.60;9.70;;;;;;;;;;5053230;28;20028;-85
2021/09/25 03:18:58;;;;;;;39.25;9.55;;;;;;;;;;5035788;28;20044;-84
2021/09/25 03:21:24;;;;;;;27.20;9.48;;;;;;;;;;5034918;28;20033;-84
2021/09/25 03:23:49;;;;;;;36.30;8.30;;;;;;;;;;5052206;28;20027;-84
2021/09/25 03:26:14;;;;;;;33.10;8.82;;;;;;;;;;5033534;28;20029;-84
2021/09/25 03:28:40;;;;;;;30.77;7.72;;;;;;;;;;5033899;28;20074;-84
2021/09/25 03:31:05;;;;;;;31.73;7.57;;;;;;;;;;5052394;28;20021;-85
2021/09/25 03:33:31;;;;;;;29.85;7.93;;;;;;;;;;5051845;28;20021;-84
2021/09/25 03:35:56;;;;;;;28.98;7.75;;;;;;;;;;5033760;28;20017;-84
2021/09/25 03:38:24;;;;;;;27.30;7.95;;;;;;;;;;5034369;28;20029;-84
2021/09/25 03:40:49;;;;;;;34.72;8.43;;;;;;;;;;5033503;28;20397;-84
2021/09/25 03:43:15;;;;;;;43.65;8.27;;;;;;;;;;5033776;28;20103;-84
2021/09/25 03:45:40;;;;;;;34.33;8.13;;;;;;;;;;5033850;28;20194;-84
2021/09/25 03:48:05;;;;;;;29.73;8.45;;;;;;;;;;5051799;28;20624;-84
2021/09/25 03:50:31;;;;;;;30.70;7.45;;;;;;;;;;5038132;28;20160;-84
2021/09/25 03:52:57;;;;;;;35.58;8.68;;;;;;;;;;5037843;28;20021;-84
2021/09/25 03:55:22;;;;;;;32.08;8.93;;;;;;;;;;5056250;28;20021;-84
2021/09/25 03:57:47;;;;;;;31.15;7.80;;;;;;;;;;5056455;28;20103;-83
2021/09/25 04:00:12;;;;;;;25.73;7.53;;;;;;;;;;5037918;28;20024;-84
2021/09/25 04:02:38;;;;;;;37.50;8.68;;;;;;;;;;5037900;28;20879;-85
2021/09/25 04:05:03;;;;;;;35.80;7.93;;;;;;;;;;5054576;28;20021;-84
2021/09/25 04:07:28;;;;;;;32.75;8.40;;;;;;;;;;5037285;28;20124;-84
2021/09/25 04:09:54;;;;;;;30.60;7.03;;;;;;;;;;5036532;28;20071;-83
2021/09/25 04:12:19;;;;;;;29.70;7.00;;;;;;;;;;5037477;28;20596;-84
2021/09/25 04:14:44;;;;;;;29.93;7.80;;;;;;;;;;5037041;28;20473;-84
2021/09/25 04:17:09;;;;;;;30.47;7.47;;;;;;;;;;5036731;28;20276;-85
2021/09/25 04:19:34;;;;;;;33.40;7.82;;;;;;;;;;5054607;28;20688;-84
2021/09/25 04:22:00;;;;;;;31.73;7.93;;;;;;;;;;5037144;28;20025;-84
2021/09/25 04:24:25;;;;;;;28.92;6.95;;;;;;;;;;5037429;28;20268;-84
2021/09/25 04:26:50;;;;;;;36.22;8.05;;;;;;;;;;5037566;28;20025;-85
2021/09/25 04:29:16;;;;;;;34.55;7.70;;;;;;;;;;5054836;28;20040;-85
2021/09/25 04:31:41;;;;;;;31.02;7.53;;;;;;;;;;5054656;28;20024;-84
2021/09/25 04:34:06;;;;;;;30.45;7.40;;;;;;;;;;5054419;28;20052;-84
2021/09/25 04:36:32;;;;;;;34.38;8.25;;;;;;;;;;5037026;28;20139;-85
2021/09/25 04:38:58;;;;;;;34.15;8.05;;;;;;;;;;5036112;28;20024;-84
2021/09/25 04:41:23;;;;;;;32.28;7.43;;;;;;;;;;5055290;28;20024;-85
2021/09/25 04:43:49;;;;;;;33.75;7.65;;;;;;;;;;5036345;28;20147;-84
2021/09/25 04:46:14;;;;;;;39.20;7.82;;;;;;;;;;5054774;28;20063;-84
2021/09/25 04:48:40;;;;;;;26.73;7.43;;;;;;;;;;5035961;28;20088;-85
2021/09/25 04:51:05;;;;;;;27.77;7.72;;;;;;;;;;5055156;28;20447;-84
2021/09/25 04:53:30;;;;;;;41.33;8.15;;;;;;;;;;5036553;28;20028;-84
2021/09/25 04:55:56;;;;;;;31.50;8.15;;;;;;;;;;5036532;28;20482;-84
2021/09/25 04:58:27;;;;;;;36.78;7.85;;;;;;;;;;5036109;28;20120;-84
2021/09/25 05:00:52;;;;;;;38.08;9.40;;;;;;;;;;5035925;28;20021;-85
2021/09/25 05:03:18;;;;;;;32.53;8.27;;;;;;;;;;5036064;28;20029;-84
2021/09/25 05:05:43;;;;;;;35.33;8.73;;;;;;;;;;5035754;28;20679;-84
2021/09/25 05:08:08;;;;;;;35.43;8.17;;;;;;;;;;5037435;28;20051;-84
2021/09/25 05:10:33;;;;;;;38.03;8.38;;;;;;;;;;5036770;28;20016;-84
2021/09/25 05:12:59;;;;;;;34.65;9.50;;;;;;;;;;5054367;28;20525;-84
2021/09/25 05:15:24;;;;;;;39.60;9.18;;;;;;;;;;5036253;28;20358;-84
2021/09/25 05:17:49;;;;;;;46.40;10.93;;;;;;;;;;5053655;28;20029;-85
2021/09/25 05:20:14;;;;;;;37.93;10.47;;;;;;;;;;5034916;28;20111;-84
2021/09/25 05:22:39;;;;;;;31.23;8.10;;;;;;;;;;5034814;28;20252;-84
2021/09/25 05:25:06;;;;;;;45.13;10.60;;;;;;;;;;5052813;28;20488;-85
2021/09/25 05:27:32;;;;;;;33.60;8.85;;;;;;;;;;5035172;28;20082;-84
2021/09/25 05:29:57;;;;;;;33.28;8.35;;;;;;;;;;5053058;28;20035;-84
2021/09/25 05:32:23;;;;;;;35.63;8.43;;;;;;;;;;5035183;28;20017;-84
2021/09/25 05:34:48;;;;;;;31.90;8.60;;;;;;;;;;5053053;28;20025;-84
2021/09/25 05:37:16;;;;;;;35.67;8.10;;;;;;;;;;5052356;28;20033;-84
2021/09/25 05:39:42;;;;;;;39.22;8.88;;;;;;;;;;5034479;28;20494;-84
2021/09/25 05:42:07;;;;;;;33.93;7.97;;;;;;;;;;5053400;28;20052;-84
2021/09/25 05:44:32;;;;;;;35.63;9.07;;;;;;;;;;5034703;28;20260;-85
2021/09/25 05:46:58;;;;;;;33.95;7.35;;;;;;;;;;5052226;28;20039;-83
2021/09/25 05:49:23;;;;;;;35.67;8.80;;;;;;;;;;5052452;28;20020;-84
2021/09/25 05:51:50;;;;;;;31.15;7.30;;;;;;;;;;5035183;28;20272;-85
2021/09/25 05:54:15;;;;;;;31.60;10.10;;;;;;;;;;5033974;28;20025;-84
2021/09/25 05:56:40;;;;;;;36.80;7.63;;;;;;;;;;5034270;28;20043;-84
2021/09/25 05:59:05;;;;;;;19.90;6.57;;;;;;;;;;5035557;28;20735;-84
2021/09/25 06:01:31;;;;;;;38.53;8.77;;;;;;;;;;5033667;28;20389;-84
2021/09/25 06:03:56;;;;;;;26.67;7.28;;;;;;;;;;5033577;28;20025;-84
2021/09/25 06:06:21;;;;;;;25.23;7.60;;;;;;;;;;5051661;28;20021;-83
2021/09/25 06:08:46;;;;;;;22.55;7.07;;;;;;;;;;5052774;28;20260;-85
2021/09/25 06:11:12;;;;;;;28.25;6.97;;;;;;;;;;5050189;28;20025;-84
2021/09/25 06:13:37;;;;;;;22.52;6.47;;;;;;;;;;5052677;28;20021;-84
2021/09/25 06:16:02;;;;;;;23.08;5.60;;;;;;;;;;5034389;28;20064;-84
2021/09/25 06:18:28;;;;;;;25.55;6.47;;;;;;;;;;4995054;28;1109660;-84
2021/09/25 06:20:53;;;;;;;30.83;7.05;;;;;;;;;;5035703;28;20409;-85
2021/09/25 06:23:18;;;;;;;21.90;6.20;;;;;;;;;;5037045;28;20026;-84
2021/09/25 06:25:43;;;;;;;25.30;6.45;;;;;;;;;;5037950;28;20025;-84
2021/09/25 06:28:09;;;;;;;31.63;7.20;;;;;;;;;;5036382;28;20044;-85
2021/09/25 06:30:40;;;;;;;22.17;5.63;;;;;;;;;;5033221;28;20032;-84
2021/09/25 06:33:05;;;;;;;30.27;6.47;;;;;;;;;;5034023;28;20098;-85
2021/09/25 06:35:31;;;;;;;25.80;5.82;;;;;;;;;;5052181;28;20029;-84
2021/09/25 06:37:56;;;;;;;24.90;5.75;;;;;;;;;;5052753;28;20028;-85
2021/09/25 06:40:21;;;;;;;22.33;5.65;;;;;;;;;;5053349;28;20032;-84
2021/09/25 06:42:47;;;;;;;18.35;4.63;;;;;;;;;;5052088;28;20049;-84
2021/09/25 06:45:12;;;;;;;25.80;6.50;;;;;;;;;;5032777;28;20043;-84
2021/09/25 06:47:37;;;;;;;24.77;5.75;;;;;;;;;;5034212;28;20025;-84
2021/09/25 06:50:03;;;;;;;24.42;6.00;;;;;;;;;;5055317;28;20017;-85
2021/09/25 06:52:28;;;;;;;25.13;5.95;;;;;;;;;;5038601;28;20025;-85
2021/09/25 06:54:54;;;;;;;25.52;5.60;;;;;;;;;;5039882;28;20816;-84
2021/09/25 06:57:19;;;;;;;23.83;4.95;;;;;;;;;;5053903;28;20033;-85
2021/09/25 06:59:44;;;;;;;23.57;6.17;;;;;;;;;;5032517;28;20029;-84
2021/09/25 07:02:09;;;;;;;21.80;5.77;;;;;;;;;;5052948;28;20592;-84
2021/09/25 07:04:34;;;;;;;22.90;5.13;;;;;;;;;;5051014;28;20615;-85
2021/09/25 07:07:00;;;;;;;23.77;6.25;;;;;;;;;;5036493;28;20286;-85
2021/09/25 07:09:25;;;;;;;30.05;5.78;;;;;;;;;;5055754;28;20029;-84
2021/09/25 07:11:50;;;;;;;23.65;6.05;;;;;;;;;;5034688;28;20027;-85
2021/09/25 07:14:16;;;;;;;18.45;5.03;;;;;;;;;;5055538;28;20021;-85
2021/09/25 07:16:41;;;;;;;28.10;5.55;;;;;;;;;;5054645;28;20472;-84
2021/09/25 07:19:09;;;;;;;20.10;4.85;;;;;;;;;;5041655;28;20508;-85
2021/09/25 07:21:34;;;;;;;23.75;5.78;;;;;;;;;;5041614;28;20036;-84
2021/09/25 07:23:59;;;;;;;23.60;5.22;;;;;;;;;;5041742;28;20025;-84
2021/09/25 07:26:25;;;;;;;23.67;5.17;;;;;;;;;;5061346;28;20121;-85
2021/09/25 07:28:50;;;;;;;20.77;5.93;;;;;;;;;;5063441;28;20372;-85
2021/09/25 07:31:16;;;;;;;19.60;4.95;;;;;;;;;;5064121;28;20051;-85
2021/09/25 07:33:41;;;;;;;23.55;6.60;;;;;;;;;;5062615;28;20024;-85
2021/09/25 07:36:07;;;;;;;19.70;5.43;;;;;;;;;;5044375;28;20040;-84
2021/09/25 07:38:32;;;;;;;30.38;6.95;;;;;;;;;;5040779;28;20044;-84
2021/09/25 07:40:57;;;;;;;22.87;5.30;;;;;;;;;;5041086;28;20033;-84
2021/09/25 07:43:24;;;;;;;24.90;4.90;;;;;;;;;;5041286;28;20309;-84
2021/09/25 07:45:49;;;;;;;18.77;4.38;;;;;;;;;;5042082;28;20431;-84
2021/09/25 07:48:15;;;;;;;28.77;6.00;;;;;;;;;;5065265;28;20029;-85
2021/09/25 07:50:40;;;;;;;20.23;4.88;;;;;;;;;;5061285;28;20100;-84
2021/09/25 07:53:06;;;;;;;18.85;4.68;;;;;;;;;;5061697;28;20097;-85
2021/09/25 07:55:32;;;;;;;16.85;4.40;;;;;;;;;;5042768;28;20078;-85
2021/09/25 07:57:57;;;;;;;24.58;5.38;;;;;;;;;;5045050;28;20071;-85
2021/09/25 08:00:23;;;;;;;19.77;4.63;;;;;;;;;;5036845;28;20373;-85
2021/09/25 08:02:48;;;;;;;18.90;4.25;;;;;;;;;;5038722;28;20025;-84
2021/09/25 08:05:14;;;;;;;24.00;4.85;;;;;;;;;;5059824;28;20025;-85
2021/09/25 08:07:39;;;;;;;25.95;4.93;;;;;;;;;;5039312;28;20135;-85
2021/09/25 08:10:06;;;;;;;20.45;4.20;;;;;;;;;;5053565;28;20029;-85
2021/09/25 08:12:31;;;;;;;15.80;4.10;;;;;;;;;;5035717;28;20029;-85
2021/09/25 08:14:57;;;;;;;17.85;4.10;;;;;;;;;;5036160;28;20032;-85
2021/09/25 08:17:22;;;;;;;21.33;4.25;;;;;;;;;;5035266;28;20404;-84
2021/09/25 08:19:48;;;;;;;23.02;5.50;;;;;;;;;;5035854;28;20057;-85
2021/09/25 08:22:13;;;;;;;16.50;3.95;;;;;;;;;;5035453;28;20028;-85
2021/09/25 08:24:38;;;;;;;16.17;3.80;;;;;;;;;;5058156;28;20025;-85
2021/09/25 08:27:04;;;;;;;17.05;4.60;;;;;;;;;;5039677;28;20021;-85
2021/09/25 08:29:29;;;;;;;17.90;4.00;;;;;;;;;;5056243;28;20017;-85
2021/09/25 08:31:54;;;;;;;17.48;3.80;;;;;;;;;;5038418;28;20064;-84
2021/09/25 08:34:20;;;;;;;19.13;4.40;;;;;;;;;;5059838;28;20048;-84
2021/09/25 08:36:45;;;;;;;18.08;3.83;;;;;;;;;;5043739;28;20271;-85
2021/09/25 08:39:11;;;;;;;15.60;3.55;;;;;;;;;;5061971;28;20013;-85
2021/09/25 08:41:36;;;;;;;25.10;4.03;;;;;;;;;;5057781;28;20376;-85
2021/09/25 08:44:02;;;;;;;18.38;3.67;;;;;;;;;;5050725;28;20477;-84
2021/09/25 08:46:27;;;;;;;16.08;4.00;;;;;;;;;;5035286;28;20119;-85
2021/09/25 08:48:54;;;;;;;19.55;3.88;;;;;;;;;;5035389;28;20032;-84
2021/09/25 08:51:19;;;;;;;17.40;3.22;;;;;;;;;;5048803;28;20100;-85
2021/09/25 08:53:45;;;;;;;14.75;3.20;;;;;;;;;;5036599;28;20232;-84
2021/09/25 08:56:12;;;;;;;20.02;3.58;;;;;;;;;;5055374;28;20024;-84
2021/09/25 08:58:38;;;;;;;17.33;3.10;;;;;;;;;;5052282;28;20047;-84
2021/09/25 09:01:04;;;;;;;16.15;3.30;;;;;;;;;;5039175;28;20033;-84
2021/09/25 09:03:34;;;;;;;15.57;3.70;;;;;;;;;;5040085;28;20146;-85
2021/09/25 09:06:08;;;;;;;12.15;3.70;;;;;;;;;;5040950;28;20036;-85
2021/09/25 09:08:34;;;;;;;12.45;2.95;;;;;;;;;;5059841;28;20024;-84
2021/09/25 09:11:02;;;;;;;17.30;3.95;;;;;;;;;;5039045;28;20020;-85
2021/09/25 09:13:27;;;;;;;17.30;3.38;;;;;;;;;;5037347;28;20017;-85
2021/09/25 09:15:53;;;;;;;16.08;4.47;;;;;;;;;;5034249;28;20028;-85
2021/09/25 09:18:19;;;;;;;14.30;3.17;;;;;;;;;;5037866;28;20057;-84
2021/09/25 09:21:02;;;;;;;15.05;3.05;;;;;;;;;;5059336;28;20108;-85
2021/09/25 09:23:27;;;;;;;15.38;3.80;;;;;;;;;;5041520;28;20020;-85
2021/09/25 09:25:52;;;;;;;20.02;3.97;;;;;;;;;;5052723;28;20131;-85
2021/09/25 09:28:25;;;;;;;11.80;3.90;;;;;;;;;;5061154;28;20735;-85
2021/09/25 09:30:52;;;;;;;14.45;3.33;;;;;;;;;;5050257;28;20017;-85
2021/09/25 09:33:30;;;;;;;19.35;4.38;;;;;;;;;;5052800;28;20025;-84
2021/09/25 09:36:09;;;;;;;15.13;3.70;;;;;;;;;;5033674;28;20029;-85
2021/09/25 09:38:37;;;;;;;14.20;3.55;;;;;;;;;;5011067;28;20487;-84
2021/09/25 09:41:02;;;;;;;15.48;3.85;;;;;;;;;;5011607;28;20040;-85
2021/09/25 09:43:27;;;;;;;15.18;3.10;;;;;;;;;;5033135;28;20024;-83
2021/09/25 09:45:56;;;;;;;13.57;3.27;;;;;;;;;;5032767;28;20032;-84
2021/09/25 09:48:21;;;;;;;15.00;3.17;;;;;;;;;;5051307;28;20077;-85
2021/09/25 09:50:46;;;;;;;14.95;2.95;;;;;;;;;;5033864;28;20088;-84
2021/09/25 09:53:12;;;;;;;14.03;2.80;;;;;;;;;;5054176;28;20020;-85
2021/09/25 09:55:37;;;;;;;11.30;2.75;;;;;;;;;;5034452;28;20025;-87
2021/09/25 09:58:05;;;;;;;11.25;3.38;;;;;;;;;;5051976;28;20021;-86
2021/09/25 10:00:30;;;;;;;9.52;2.25;;;;;;;;;;5051962;28;20023;-86
2021/09/25 10:02:56;;;;;;;12.35;3.63;;;;;;;;;;5052116;28;20021;-88
2021/09/25 10:05:21;;;;;;;13.85;3.63;;;;;;;;;;5052314;28;20369;-84
2021/09/25 10:07:47;;;;;;;14.60;3.60;;;;;;;;;;5033788;28;20080;-84
2021/09/25 10:10:12;;;;;;;13.30;3.75;;;;;;;;;;5035083;28;20421;-84
2021/09/25 10:12:37;;;;;;;11.32;3.08;;;;;;;;;;5052558;28;20052;-84
2021/09/25 10:15:03;;;;;;;11.30;2.83;;;;;;;;;;5034272;28;20094;-83
2021/09/25 10:17:28;;;;;;;12.55;2.60;;;;;;;;;;5052133;28;20047;-84
2021/09/25 10:19:54;;;;;;;9.85;2.42;;;;;;;;;;5033089;28;20073;-84
2021/09/25 10:22:21;;;;;;;9.75;2.78;;;;;;;;;;5033174;28;20027;-83
2021/09/25 10:24:49;;;;;;;9.70;2.47;;;;;;;;;;5034036;28;20021;-83
2021/09/25 10:27:15;;;;;;;8.93;2.30;;;;;;;;;;5032591;28;20127;-83
2021/09/25 10:29:48;;;;;;;9.93;2.58;;;;;;;;;;5052206;28;20049;-83
2021/09/25 10:32:19;;;;;;;8.73;2.88;;;;;;;;;;5050117;28;20094;-82
2021/09/25 10:35:04;;;;;;;11.93;3.33;;;;;;;;;;5055310;28;20688;-83
2021/09/25 10:37:33;;;;;;;9.43;3.03;;;;;;;;;;5034223;28;20029;-86
2021/09/25 10:39:58;;;;;;;11.55;3.17;;;;;;;;;;5033984;28;20083;-84
2021/09/25 10:42:37;;;;;;;11.50;2.60;;;;;;;;;;5051671;28;20021;-88
2021/09/25 10:45:03;;;;;;;12.60;3.00;;;;;;;;;;5033156;28;20032;-84
2021/09/25 10:47:32;;;;;;;10.50;2.88;;;;;;;;;;5051390;28;20033;-84
2021/09/25 10:49:59;;;;;;;10.07;2.90;;;;;;;;;;5050643;28;20051;-84
2021/09/25 10:52:43;;;;;;;9.57;3.75;;;;;;;;;;5050455;28;20009;-84
2021/09/25 10:55:22;;;;;;;9.02;2.30;;;;;;;;;;5051574;28;20021;-84
2021/09/25 10:58:06;;;;;;;8.00;2.25;;;;;;;;;;5054194;28;20032;-82
2021/09/25 11:00:45;;;;;;;25.77;3.83;;;;;;;;;;5022775;28;20028;-84
2021/09/25 11:03:10;;;;;;;11.50;3.28;;;;;;;;;;5033841;28;20503;-84
2021/09/25 11:06:05;;;;;;;9.95;2.45;;;;;;;;;;5052190;28;20032;-83
2021/09/25 11:08:33;;;;;;;10.80;2.92;;;;;;;;;;4940028;28;20264;-84
2021/09/25 11:11:09;;;;;;;11.95;2.95;;;;;;;;;;5028049;28;20078;-84
2021/09/25 11:13:53;;;;;;;13.88;4.15;;;;;;;;;;5031662;28;20693;-84
2021/09/25 11:16:38;;;;;;;9.75;2.78;;;;;;;;;;5035285;28;20021;-83
2021/09/25 11:19:07;;;;;;;8.95;2.83;;;;;;;;;;5033742;28;20057;-84
2021/09/25 11:21:33;;;;;;;8.50;3.28;;;;;;;;;;5033191;28;20017;-84
2021/09/25 11:23:58;;;;;;;11.00;2.80;;;;;;;;;;5033021;28;20563;-85
2021/09/25 11:26:23;;;;;;;11.75;2.80;;;;;;;;;;5049633;28;20033;-84
2021/09/25 11:28:48;;;;;;;9.68;2.80;;;;;;;;;;5049359;28;20021;-86
2021/09/25 11:31:14;;;;;;;7.73;2.43;;;;;;;;;;5050834;28;20024;-85
2021/09/25 11:33:39;;;;;;;8.07;2.60;;;;;;;;;;5051337;28;20337;-85
2021/09/25 11:36:08;;;;;;;8.10;2.70;;;;;;;;;;5053060;28;20120;-85
2021/09/25 11:38:33;;;;;;;11.32;2.55;;;;;;;;;;5035089;28;20035;-84
2021/09/25 11:40:58;;;;;;;12.70;2.33;;;;;;;;;;5051491;28;20029;-84
2021/09/25 11:43:24;;;;;;;10.70;2.67;;;;;;;;;;5049774;28;20031;-84
2021/09/25 11:45:51;;;;;;;11.88;3.40;;;;;;;;;;5033430;28;20028;-84
2021/09/25 11:48:20;;;;;;;10.23;2.70;;;;;;;;;;5034098;28;20737;-84
2021/09/25 11:50:47;;;;;;;8.30;2.92;;;;;;;;;;5034141;28;20024;-85
2021/09/25 11:53:13;;;;;;;6.30;2.17;;;;;;;;;;5033993;28;20079;-85
2021/09/25 11:55:39;;;;;;;8.10;3.10;;;;;;;;;;5052040;28;20025;-85
2021/09/25 11:58:06;;;;;;;7.13;2.35;;;;;;;;;;5051631;28;20024;-85
2021/09/25 12:00:35;;;;;;;6.20;2.72;;;;;;;;;;5033467;28;20024;-84
2021/09/25 12:03:00;;;;;;;6.07;2.80;;;;;;;;;;5055252;28;20017;-85
2021/09/25 12:05:27;;;;;;;7.53;2.33;;;;;;;;;;5053185;28;20028;-85
2021/09/25 12:07:53;;;;;;;8.55;2.47;;;;;;;;;;5052972;28;20025;-85
2021/09/25 12:10:22;;;;;;;4.65;2.10;;;;;;;;;;5055014;28;20017;-84
2021/09/25 12:12:55;;;;;;;9.85;2.17;;;;;;;;;;5039096;28;20023;-85
2021/09/25 12:15:25;;;;;;;5.78;1.92;;;;;;;;;;5038204;28;20051;-85
2021/09/25 12:18:10;;;;;;;6.20;1.85;;;;;;;;;;5037451;28;20028;-85
2021/09/25 12:20:35;;;;;;;6.47;2.13;;;;;;;;;;5009183;28;20775;-85
2021/09/25 12:23:03;;;;;;;6.28;2.55;;;;;;;;;;5038229;28;20032;-84
2021/09/25 12:25:28;;;;;;;6.45;2.72;;;;;;;;;;5055327;28;20035;-84
2021/09/25 12:27:54;;;;;;;5.68;1.90;;;;;;;;;;5037038;28;20021;-85
2021/09/25 12:30:19;;;;;;;10.43;2.17;;;;;;;;;;5036698;28;20017;-84
2021/09/25 12:33:01;;;;;;;5.55;2.40;;;;;;;;;;5054666;28;20363;-85
2021/09/25 12:35:26;;;;;;;4.47;1.98;;;;;;;;;;5036182;28;20063;-85
2021/09/25 12:37:51;;;;;;;6.60;1.73;;;;;;;;;;5053995;28;20028;-86
2021/09/25 12:40:17;;;;;;;4.17;2.20;;;;;;;;;;5053926;28;20039;-85
2021/09/25 12:42:43;;;;;;;4.85;2.25;;;;;;;;;;5052809;28;20028;-85
2021/09/25 12:45:11;;;;;;;7.20;2.33;;;;;;;;;;5033932;28;20036;-85
2021/09/25 12:47:37;;;;;;;5.07;1.90;;;;;;;;;;5029201;28;20416;-85
2021/09/25 12:50:14;;;;;;;5.13;2.03;;;;;;;;;;5032970;28;20078;-85
2021/09/25 12:52:41;;;;;;;5.10;1.70;;;;;;;;;;5014345;28;20021;-85
2021/09/25 12:55:07;;;;;;;5.38;1.98;;;;;;;;;;5015221;28;20469;-85
2021/09/25 12:57:32;;;;;;;5.20;1.95;;;;;;;;;;5033032;28;20061;-86
2021/09/25 12:59:59;;;;;;;4.00;2.03;;;;;;;;;;5032069;28;20060;-85
2021/09/25 13:02:25;;;;;;;7.50;1.80;;;;;;;;;;5013847;28;20075;-85
2021/09/25 13:04:54;;;;;;;5.57;2.20;;;;;;;;;;5032589;28;20388;-85
2021/09/25 13:07:26;;;;;;;10.43;2.22;;;;;;;;;;5032919;28;20044;-85
2021/09/25 13:09:53;;;;;;;5.93;1.88;;;;;;;;;;5013903;28;20017;-85
2021/09/25 13:12:19;;;;;;;4.07;1.40;;;;;;;;;;5014081;28;20028;-85
2021/09/25 13:15:05;;;;;;;7.25;1.50;;;;;;;;;;5015160;28;20743;-86
2021/09/25 13:17:31;;;;;;;4.40;1.77;;;;;;;;;;5014929;28;20041;-85
2021/09/25 13:19:57;;;;;;;8.18;1.67;;;;;;;;;;5033552;28;20171;-85
2021/09/25 13:22:22;;;;;;;7.72;1.80;;;;;;;;;;5014260;28;20076;-85
2021/09/25 13:24:48;;;;;;;6.88;2.10;;;;;;;;;;5015821;28;20123;-85
2021/09/25 13:27:13;;;;;;;3.05;1.80;;;;;;;;;;5032932;28;20028;-85
2021/09/25 13:29:40;;;;;;;4.78;1.77;;;;;;;;;;5016126;28;20028;-85
2021/09/25 13:32:05;;;;;;;2.80;1.52;;;;;;;;;;5014082;28;20018;-85
2021/09/25 13:34:30;;;;;;;6.40;2.03;;;;;;;;;;5013946;28;20365;-85
2021/09/25 13:36:58;;;;;;;5.17;1.70;;;;;;;;;;5013088;28;20029;-85
2021/09/25 13:39:24;;;;;;;7.28;2.35;;;;;;;;;;5015568;28;20275;-85
2021/09/25 13:41:49;;;;;;;5.10;1.90;;;;;;;;;;5031283;28;20029;-85
2021/09/25 13:44:14;;;;;;;4.70;1.70;;;;;;;;;;5031616;28;20047;-85
2021/09/25 13:46:40;;;;;;;7.28;2.30;;;;;;;;;;5030899;28;20051;-85
2021/09/25 13:49:05;;;;;;;4.88;2.13;;;;;;;;;;5013650;28;20025;-85
2021/09/25 13:51:30;;;;;;;2.88;1.60;;;;;;;;;;5013983;28;20017;-85
2021/09/25 13:53:57;;;;;;;6.40;2.53;;;;;;;;;;5031225;28;20013;-86
2021/09/25 13:56:22;;;;;;;5.03;1.98;;;;;;;;;;5013080;28;20049;-85
2021/09/25 13:58:48;;;;;;;7.03;2.38;;;;;;;;;;5013021;28;20413;-86
2021/09/25 14:01:13;;;;;;;5.03;2.00;;;;;;;;;;5032398;28;20149;-86
2021/09/25 14:03:38;;;;;;;4.70;1.70;;;;;;;;;;5031111;28;20444;-85
2021/09/25 14:06:03;;;;;;;7.17;2.07;;;;;;;;;;5012795;28;20116;-86
2021/09/25 14:08:30;;;;;;;3.67;1.87;;;;;;;;;;5030802;28;20434;-85
2021/09/25 14:10:55;;;;;;;3.35;1.85;;;;;;;;;;5012979;28;20382;-86
2021/09/25 14:13:21;;;;;;;4.85;1.77;;;;;;;;;;5013508;28;20029;-85
2021/09/25 14:15:46;;;;;;;4.95;2.08;;;;;;;;;;5013066;28;20489;-85
2021/09/25 14:18:12;;;;;;;6.03;1.90;;;;;;;;;;5032322;28;20042;-85
2021/09/25 14:20:41;;;;;;;7.40;1.73;;;;;;;;;;5013000;28;20025;-85
2021/09/25 14:23:07;;;;;;;4.93;1.60;;;;;;;;;;5013372;28;20028;-86
2021/09/25 14:25:32;;;;;;;5.63;2.10;;;;;;;;;;5030887;28;20017;-85